sensor_id;sensor_type;location;lat;lon;timestamp;temperature;humidity
52415;DHT22;38340;52.964;6.086;2022-09-12T00:01:22;13.00;99.90
52415;DHT22;38340;52.964;6.086;2022-09-12T00:03:54;13.00;99.90
52415;DHT22;38340;52.964;6.086;2022-09-12T00:06:26;12.90;99.90
52415;DHT22;38340;52.964;6.086;2022-09-12T00:09:01;12.90;99.90
52415;DHT22;38340;52.964;6.086;2022-09-12T00:11:27;12.80;99.90
52415;DHT22;38340;52.964;6.086;2022-09-12T00:13:58;12.80;99.90
52415;DHT22;38340;52.964;6.086;2022-09-12T00:16:26;12.70;99.90
52415;DHT22;38340;52.964;6.086;2022-09-12T00:18:51;12.70;99.90
52415;DHT22;38340;52.964;6.086;2022-09-12T00:21:18;12.70;99.90
52415;DHT22;38340;52.964;6.086;2022-09-12T00:23:44;12.70;99.90
52415;DHT22;38340;52.964;6.086;2022-09-12T00:26:10;12.60;99.90
52415;DHT22;38340;52.964;6.086;2022-09-12T00:28:38;12.50;99.90
52415;DHT22;38340;52.964;6.086;2022-09-12T00:31:06;12.50;99.90
52415;DHT22;38340;52.964;6.086;2022-09-12T00:33:33;12.50;99.90
52415;DHT22;38340;52.964;6.086;2022-09-12T00:36:06;12.50;99.90
52415;DHT22;38340;52.964;6.086;2022-09-12T00:38:32;12.50;99.90
52415;DHT22;38340;52.964;6.086;2022-09-12T00:40:58;12.40;99.90
52415;DHT22;38340;52.964;6.086;2022-09-12T00:46:12;12.40;99.90
52415;DHT22;38340;52.964;6.086;2022-09-12T00:49:00;12.30;99.90
52415;DHT22;38340;52.964;6.086;2022-09-12T00:51:28;12.30;99.90
52415;DHT22;38340;52.964;6.086;2022-09-12T00:53:57;12.40;99.90
52415;DHT22;38340;52.964;6.086;2022-09-12T00:56:25;12.30;99.90
52415;DHT22;38340;52.964;6.086;2022-09-12T00:59:01;12.30;99.90
52415;DHT22;38340;52.964;6.086;2022-09-12T01:01:28;12.30;99.90
52415;DHT22;38340;52.964;6.086;2022-09-12T01:03:54;12.30;99.90
52415;DHT22;38340;52.964;6.086;2022-09-12T01:06:29;12.30;99.90
52415;DHT22;38340;52.964;6.086;2022-09-12T01:08:57;12.30;99.90
52415;DHT22;38340;52.964;6.086;2022-09-12T01:11:24;12.30;99.90
52415;DHT22;38340;52.964;6.086;2022-09-12T01:13:51;12.20;99.90
52415;DHT22;38340;52.964;6.086;2022-09-12T01:16:16;12.20;99.90
52415;DHT22;38340;52.964;6.086;2022-09-12T01:21:43;12.20;99.90
52415;DHT22;38340;52.964;6.086;2022-09-12T01:36:23;12.30;99.90
52415;DHT22;38340;52.964;6.086;2022-09-12T01:47:17;12.10;99.90
52415;DHT22;38340;52.964;6.086;2022-09-12T01:50:05;12.10;99.90
52415;DHT22;38340;52.964;6.086;2022-09-12T01:52:50;12.10;99.90
52415;DHT22;38340;52.964;6.086;2022-09-12T01:55:29;12.00;99.90
52415;DHT22;38340;52.964;6.086;2022-09-12T01:58:09;12.00;99.90
52415;DHT22;38340;52.964;6.086;2022-09-12T02:00:53;11.90;99.90
52415;DHT22;38340;52.964;6.086;2022-09-12T02:03:23;12.00;99.90
52415;DHT22;38340;52.964;6.086;2022-09-12T02:05:53;12.00;99.90
52415;DHT22;38340;52.964;6.086;2022-09-12T02:08:27;12.00;99.90
52415;DHT22;38340;52.964;6.086;2022-09-12T02:10:59;12.00;99.90
52415;DHT22;38340;52.964;6.086;2022-09-12T02:13:37;12.10;99.90
52415;DHT22;38340;52.964;6.086;2022-09-12T02:16:31;12.20;99.90
52415;DHT22;38340;52.964;6.086;2022-09-12T02:19:04;12.10;99.90
52415;DHT22;38340;52.964;6.086;2022-09-12T02:21:32;12.20;99.90
52415;DHT22;38340;52.964;6.086;2022-09-12T02:24:02;12.20;99.90
52415;DHT22;38340;52.964;6.086;2022-09-12T02:26:35;12.30;99.90
52415;DHT22;38340;52.964;6.086;2022-09-12T02:29:03;12.30;99.90
52415;DHT22;38340;52.964;6.086;2022-09-12T02:37:04;12.30;99.90
52415;DHT22;38340;52.964;6.086;2022-09-12T02:39:32;12.30;99.90
52415;DHT22;38340;52.964;6.086;2022-09-12T02:41:59;12.30;99.90
52415;DHT22;38340;52.964;6.086;2022-09-12T02:44:27;12.40;99.90
52415;DHT22;38340;52.964;6.086;2022-09-12T02:47:10;12.30;99.90
52415;DHT22;38340;52.964;6.086;2022-09-12T02:49:38;12.30;99.90
52415;DHT22;38340;52.964;6.086;2022-09-12T02:52:04;12.30;99.90
52415;DHT22;38340;52.964;6.086;2022-09-12T02:54:30;12.30;99.90
52415;DHT22;38340;52.964;6.086;2022-09-12T02:56:56;12.30;99.90
52415;DHT22;38340;52.964;6.086;2022-09-12T02:59:22;12.30;99.90
52415;DHT22;38340;52.964;6.086;2022-09-12T03:18:19;12.30;99.90
52415;DHT22;38340;52.964;6.086;2022-09-12T03:21:05;12.40;99.90
52415;DHT22;38340;52.964;6.086;2022-09-12T03:26:12;12.40;99.90
52415;DHT22;38340;52.964;6.086;2022-09-12T03:28:41;12.30;99.90
52415;DHT22;38340;52.964;6.086;2022-09-12T03:31:17;12.20;99.90
52415;DHT22;38340;52.964;6.086;2022-09-12T03:33:43;12.30;99.90
52415;DHT22;38340;52.964;6.086;2022-09-12T03:36:18;12.30;99.90
52415;DHT22;38340;52.964;6.086;2022-09-12T03:38:45;12.30;99.90
52415;DHT22;38340;52.964;6.086;2022-09-12T03:41:11;12.30;99.90
52415;DHT22;38340;52.964;6.086;2022-09-12T03:43:37;12.30;99.90
52415;DHT22;38340;52.964;6.086;2022-09-12T03:46:02;12.30;99.90
52415;DHT22;38340;52.964;6.086;2022-09-12T03:48:28;12.40;99.90
52415;DHT22;38340;52.964;6.086;2022-09-12T03:50:59;12.40;99.90
52415;DHT22;38340;52.964;6.086;2022-09-12T03:53:25;12.40;99.90
52415;DHT22;38340;52.964;6.086;2022-09-12T03:55:51;12.40;99.90
52415;DHT22;38340;52.964;6.086;2022-09-12T03:58:16;12.50;99.90
52415;DHT22;38340;52.964;6.086;2022-09-12T04:00:42;12.60;99.90
52415;DHT22;38340;52.964;6.086;2022-09-12T04:03:08;12.50;99.90
52415;DHT22;38340;52.964;6.086;2022-09-12T04:05:34;12.60;99.90
52415;DHT22;38340;52.964;6.086;2022-09-12T04:08:00;12.70;99.90
52415;DHT22;38340;52.964;6.086;2022-09-12T04:10:26;12.70;99.90
52415;DHT22;38340;52.964;6.086;2022-09-12T04:12:52;12.70;99.90
52415;DHT22;38340;52.964;6.086;2022-09-12T04:15:18;12.70;99.90
52415;DHT22;38340;52.964;6.086;2022-09-12T04:17:43;12.70;99.90
52415;DHT22;38340;52.964;6.086;2022-09-12T04:20:09;12.70;99.90
52415;DHT22;38340;52.964;6.086;2022-09-12T04:22:35;12.70;99.90
52415;DHT22;38340;52.964;6.086;2022-09-12T04:25:01;12.70;99.90
52415;DHT22;38340;52.964;6.086;2022-09-12T04:27:27;12.80;99.90
52415;DHT22;38340;52.964;6.086;2022-09-12T04:29:53;12.80;99.90
52415;DHT22;38340;52.964;6.086;2022-09-12T04:32:20;12.80;99.90
52415;DHT22;38340;52.964;6.086;2022-09-12T04:34:46;12.90;99.90
52415;DHT22;38340;52.964;6.086;2022-09-12T04:37:12;12.90;99.90
52415;DHT22;38340;52.964;6.086;2022-09-12T04:39:38;13.00;99.90
52415;DHT22;38340;52.964;6.086;2022-09-12T04:42:04;13.00;99.90
52415;DHT22;38340;52.964;6.086;2022-09-12T04:44:30;13.00;99.90
52415;DHT22;38340;52.964;6.086;2022-09-12T04:46:56;13.10;99.90
52415;DHT22;38340;52.964;6.086;2022-09-12T04:49:21;13.20;99.90
52415;DHT22;38340;52.964;6.086;2022-09-12T04:51:47;13.20;99.90
52415;DHT22;38340;52.964;6.086;2022-09-12T04:54:17;13.20;99.90
52415;DHT22;38340;52.964;6.086;2022-09-12T04:56:45;13.30;99.90
52415;DHT22;38340;52.964;6.086;2022-09-12T04:59:12;13.30;99.90
52415;DHT22;38340;52.964;6.086;2022-09-12T05:01:39;13.30;99.90
52415;DHT22;38340;52.964;6.086;2022-09-12T05:04:04;13.40;99.90
52415;DHT22;38340;52.964;6.086;2022-09-12T05:06:33;13.30;99.90
52415;DHT22;38340;52.964;6.086;2022-09-12T05:08:59;13.40;99.90
52415;DHT22;38340;52.964;6.086;2022-09-12T05:11:29;13.50;99.90
52415;DHT22;38340;52.964;6.086;2022-09-12T05:13:55;13.40;99.90
52415;DHT22;38340;52.964;6.086;2022-09-12T05:16:22;13.40;99.90
52415;DHT22;38340;52.964;6.086;2022-09-12T05:18:48;13.60;99.90
52415;DHT22;38340;52.964;6.086;2022-09-12T05:21:17;13.50;99.90
52415;DHT22;38340;52.964;6.086;2022-09-12T05:23:43;13.60;99.90
52415;DHT22;38340;52.964;6.086;2022-09-12T05:26:13;13.60;99.90
52415;DHT22;38340;52.964;6.086;2022-09-12T05:28:39;13.60;99.90
52415;DHT22;38340;52.964;6.086;2022-09-12T05:33:40;13.70;99.90
52415;DHT22;38340;52.964;6.086;2022-09-12T05:36:10;13.70;99.90
52415;DHT22;38340;52.964;6.086;2022-09-12T05:38:36;13.80;99.90
52415;DHT22;38340;52.964;6.086;2022-09-12T05:41:08;13.80;99.90
52415;DHT22;38340;52.964;6.086;2022-09-12T05:43:35;13.70;99.90
52415;DHT22;38340;52.964;6.086;2022-09-12T05:46:09;13.80;99.90
52415;DHT22;38340;52.964;6.086;2022-09-12T05:48:36;13.80;99.90
52415;DHT22;38340;52.964;6.086;2022-09-12T05:51:07;13.90;99.90
52415;DHT22;38340;52.964;6.086;2022-09-12T05:53:34;13.80;99.90
52415;DHT22;38340;52.964;6.086;2022-09-12T05:56:09;13.80;99.90
52415;DHT22;38340;52.964;6.086;2022-09-12T05:58:37;13.90;99.90
52415;DHT22;38340;52.964;6.086;2022-09-12T06:01:11;13.90;99.90
52415;DHT22;38340;52.964;6.086;2022-09-12T06:03:56;14.00;99.90
52415;DHT22;38340;52.964;6.086;2022-09-12T06:06:25;14.00;99.90
52415;DHT22;38340;52.964;6.086;2022-09-12T06:08:55;14.00;99.90
52415;DHT22;38340;52.964;6.086;2022-09-12T06:11:25;14.00;99.90
52415;DHT22;38340;52.964;6.086;2022-09-12T06:13:51;14.00;99.90
52415;DHT22;38340;52.964;6.086;2022-09-12T06:16:22;14.10;99.90
52415;DHT22;38340;52.964;6.086;2022-09-12T06:18:59;14.20;99.90
52415;DHT22;38340;52.964;6.086;2022-09-12T06:21:26;14.20;99.90
52415;DHT22;38340;52.964;6.086;2022-09-12T06:23:53;14.30;99.90
52415;DHT22;38340;52.964;6.086;2022-09-12T06:26:20;14.20;99.90
52415;DHT22;38340;52.964;6.086;2022-09-12T06:28:48;14.30;99.90
52415;DHT22;38340;52.964;6.086;2022-09-12T06:31:20;14.30;99.90
52415;DHT22;38340;52.964;6.086;2022-09-12T06:33:48;14.30;99.90
52415;DHT22;38340;52.964;6.086;2022-09-12T06:36:26;14.40;99.90
52415;DHT22;38340;52.964;6.086;2022-09-12T06:39:19;14.50;99.90
52415;DHT22;38340;52.964;6.086;2022-09-12T06:41:46;14.50;99.90
52415;DHT22;38340;52.964;6.086;2022-09-12T06:44:19;14.50;99.90
52415;DHT22;38340;52.964;6.086;2022-09-12T06:46:46;14.50;99.90
52415;DHT22;38340;52.964;6.086;2022-09-12T06:49:12;14.60;99.90
52415;DHT22;38340;52.964;6.086;2022-09-12T06:51:37;14.70;99.90
52415;DHT22;38340;52.964;6.086;2022-09-12T06:54:04;14.80;99.90
52415;DHT22;38340;52.964;6.086;2022-09-12T06:56:30;14.80;99.90
52415;DHT22;38340;52.964;6.086;2022-09-12T06:58:56;14.90;99.90
52415;DHT22;38340;52.964;6.086;2022-09-12T07:01:24;15.00;99.90
52415;DHT22;38340;52.964;6.086;2022-09-12T07:03:55;14.90;99.90
52415;DHT22;38340;52.964;6.086;2022-09-12T07:06:44;15.00;99.90
52415;DHT22;38340;52.964;6.086;2022-09-12T07:09:12;15.00;99.90
52415;DHT22;38340;52.964;6.086;2022-09-12T07:11:41;15.10;99.90
52415;DHT22;38340;52.964;6.086;2022-09-12T07:14:10;15.00;99.90
52415;DHT22;38340;52.964;6.086;2022-09-12T07:16:36;15.20;99.90
52415;DHT22;38340;52.964;6.086;2022-09-12T07:19:03;15.10;99.90
52415;DHT22;38340;52.964;6.086;2022-09-12T07:21:29;15.20;99.90
52415;DHT22;38340;52.964;6.086;2022-09-12T07:23:56;15.10;99.90
52415;DHT22;38340;52.964;6.086;2022-09-12T07:26:28;15.30;99.90
52415;DHT22;38340;52.964;6.086;2022-09-12T07:28:55;15.40;99.90
52415;DHT22;38340;52.964;6.086;2022-09-12T07:31:23;15.30;99.90
52415;DHT22;38340;52.964;6.086;2022-09-12T07:33:49;15.30;99.90
52415;DHT22;38340;52.964;6.086;2022-09-12T07:36:18;15.40;99.90
52415;DHT22;38340;52.964;6.086;2022-09-12T07:38:44;15.50;99.90
52415;DHT22;38340;52.964;6.086;2022-09-12T07:41:22;15.60;99.90
52415;DHT22;38340;52.964;6.086;2022-09-12T07:43:56;15.60;99.90
52415;DHT22;38340;52.964;6.086;2022-09-12T07:46:23;15.70;99.90
52415;DHT22;38340;52.964;6.086;2022-09-12T07:48:51;15.70;99.90
52415;DHT22;38340;52.964;6.086;2022-09-12T07:51:17;15.70;99.90
52415;DHT22;38340;52.964;6.086;2022-09-12T07:53:43;15.90;99.90
52415;DHT22;38340;52.964;6.086;2022-09-12T07:56:10;15.90;99.90
52415;DHT22;38340;52.964;6.086;2022-09-12T07:58:38;16.10;99.90
52415;DHT22;38340;52.964;6.086;2022-09-12T08:01:16;16.10;99.90
52415;DHT22;38340;52.964;6.086;2022-09-12T08:03:46;16.20;99.90
52415;DHT22;38340;52.964;6.086;2022-09-12T08:06:14;16.40;99.90
52415;DHT22;38340;52.964;6.086;2022-09-12T08:08:41;16.50;99.90
52415;DHT22;38340;52.964;6.086;2022-09-12T08:11:10;16.60;99.90
52415;DHT22;38340;52.964;6.086;2022-09-12T08:13:38;16.70;99.90
52415;DHT22;38340;52.964;6.086;2022-09-12T08:16:07;16.70;99.90
52415;DHT22;38340;52.964;6.086;2022-09-12T08:18:34;16.80;99.90
52415;DHT22;38340;52.964;6.086;2022-09-12T08:21:03;17.10;99.90
52415;DHT22;38340;52.964;6.086;2022-09-12T08:23:29;17.20;99.90
52415;DHT22;38340;52.964;6.086;2022-09-12T08:25:59;17.20;99.90
52415;DHT22;38340;52.964;6.086;2022-09-12T08:28:26;17.40;99.90
52415;DHT22;38340;52.964;6.086;2022-09-12T08:30:52;17.50;99.90
52415;DHT22;38340;52.964;6.086;2022-09-12T08:33:19;17.60;99.90
52415;DHT22;38340;52.964;6.086;2022-09-12T08:35:45;17.70;99.90
52415;DHT22;38340;52.964;6.086;2022-09-12T08:38:11;17.90;99.90
52415;DHT22;38340;52.964;6.086;2022-09-12T08:40:52;18.00;99.90
52415;DHT22;38340;52.964;6.086;2022-09-12T08:45:54;18.20;99.90
52415;DHT22;38340;52.964;6.086;2022-09-12T08:48:22;18.20;99.90
52415;DHT22;38340;52.964;6.086;2022-09-12T08:50:47;18.20;99.90
52415;DHT22;38340;52.964;6.086;2022-09-12T08:53:15;18.20;99.90
52415;DHT22;38340;52.964;6.086;2022-09-12T08:55:46;18.40;99.90
52415;DHT22;38340;52.964;6.086;2022-09-12T08:58:19;18.50;99.90
52415;DHT22;38340;52.964;6.086;2022-09-12T09:03:59;18.80;99.90
52415;DHT22;38340;52.964;6.086;2022-09-12T09:17:40;19.20;99.90
52415;DHT22;38340;52.964;6.086;2022-09-12T09:23:15;19.10;99.90
52415;DHT22;38340;52.964;6.086;2022-09-12T09:30:54;19.80;99.90
52415;DHT22;38340;52.964;6.086;2022-09-12T09:33:22;20.00;99.90
52415;DHT22;38340;52.964;6.086;2022-09-12T09:36:13;20.20;99.90
52415;DHT22;38340;52.964;6.086;2022-09-12T09:41:42;20.20;99.90
52415;DHT22;38340;52.964;6.086;2022-09-12T09:44:09;20.10;99.90
52415;DHT22;38340;52.964;6.086;2022-09-12T09:46:35;20.10;99.90
52415;DHT22;38340;52.964;6.086;2022-09-12T09:49:02;20.10;99.90
52415;DHT22;38340;52.964;6.086;2022-09-12T09:51:33;20.30;99.90
52415;DHT22;38340;52.964;6.086;2022-09-12T09:54:20;20.50;99.90
52415;DHT22;38340;52.964;6.086;2022-09-12T09:56:48;20.70;99.90
52415;DHT22;38340;52.964;6.086;2022-09-12T09:59:18;20.80;99.90
52415;DHT22;38340;52.964;6.086;2022-09-12T10:01:50;21.00;99.90
52415;DHT22;38340;52.964;6.086;2022-09-12T10:04:38;21.10;99.90
52415;DHT22;38340;52.964;6.086;2022-09-12T10:07:05;21.20;99.90
52415;DHT22;38340;52.964;6.086;2022-09-12T10:09:32;21.20;99.90
52415;DHT22;38340;52.964;6.086;2022-09-12T10:12:01;21.20;99.90
52415;DHT22;38340;52.964;6.086;2022-09-12T10:15:15;21.00;99.90
52415;DHT22;38340;52.964;6.086;2022-09-12T10:17:43;21.10;99.90
52415;DHT22;38340;52.964;6.086;2022-09-12T10:20:35;21.10;99.90
52415;DHT22;38340;52.964;6.086;2022-09-12T10:23:35;21.20;99.90
52415;DHT22;38340;52.964;6.086;2022-09-12T10:26:04;21.30;99.90
52415;DHT22;38340;52.964;6.086;2022-09-12T10:28:37;21.40;99.90
52415;DHT22;38340;52.964;6.086;2022-09-12T10:31:05;21.50;99.90
52415;DHT22;38340;52.964;6.086;2022-09-12T10:33:39;21.50;99.90
52415;DHT22;38340;52.964;6.086;2022-09-12T10:36:06;21.60;99.90
52415;DHT22;38340;52.964;6.086;2022-09-12T10:38:32;21.50;99.90
52415;DHT22;38340;52.964;6.086;2022-09-12T10:41:06;21.60;99.90
52415;DHT22;38340;52.964;6.086;2022-09-12T10:43:36;21.70;99.90
52415;DHT22;38340;52.964;6.086;2022-09-12T10:48:49;21.80;99.90
52415;DHT22;38340;52.964;6.086;2022-09-12T10:51:27;21.80;99.90
52415;DHT22;38340;52.964;6.086;2022-09-12T10:54:01;21.90;99.90
52415;DHT22;38340;52.964;6.086;2022-09-12T10:56:29;22.00;99.90
52415;DHT22;38340;52.964;6.086;2022-09-12T11:01:49;22.10;99.90
52415;DHT22;38340;52.964;6.086;2022-09-12T11:09:59;22.20;99.90
52415;DHT22;38340;52.964;6.086;2022-09-12T11:12:55;22.30;99.90
52415;DHT22;38340;52.964;6.086;2022-09-12T11:40:09;23.20;99.90
52415;DHT22;38340;52.964;6.086;2022-09-12T11:42:40;23.20;99.90
52415;DHT22;38340;52.964;6.086;2022-09-12T11:45:18;23.20;99.90
52415;DHT22;38340;52.964;6.086;2022-09-12T11:47:53;23.40;99.90
52415;DHT22;38340;52.964;6.086;2022-09-12T11:50:30;23.40;99.90
52415;DHT22;38340;52.964;6.086;2022-09-12T11:53:22;23.30;99.90
52415;DHT22;38340;52.964;6.086;2022-09-12T11:55:52;23.20;99.90
52415;DHT22;38340;52.964;6.086;2022-09-12T11:58:22;23.10;99.90
52415;DHT22;38340;52.964;6.086;2022-09-12T12:00:51;23.30;99.90
52415;DHT22;38340;52.964;6.086;2022-09-12T12:03:42;23.30;99.90
52415;DHT22;38340;52.964;6.086;2022-09-12T12:06:18;23.20;99.90
52415;DHT22;38340;52.964;6.086;2022-09-12T12:08:47;23.30;99.90
52415;DHT22;38340;52.964;6.086;2022-09-12T12:11:38;23.30;99.90
52415;DHT22;38340;52.964;6.086;2022-09-12T12:14:45;23.30;99.90
52415;DHT22;38340;52.964;6.086;2022-09-12T12:17:20;23.10;99.90
52415;DHT22;38340;52.964;6.086;2022-09-12T12:19:55;23.00;99.90
52415;DHT22;38340;52.964;6.086;2022-09-12T12:22:23;23.10;99.90
52415;DHT22;38340;52.964;6.086;2022-09-12T12:25:03;23.30;99.90
52415;DHT22;38340;52.964;6.086;2022-09-12T12:27:51;23.30;99.90
52415;DHT22;38340;52.964;6.086;2022-09-12T12:36:00;23.50;99.90
52415;DHT22;38340;52.964;6.086;2022-09-12T12:38:29;23.70;99.90
52415;DHT22;38340;52.964;6.086;2022-09-12T12:43:53;23.90;99.90
52415;DHT22;38340;52.964;6.086;2022-09-12T12:46:27;24.00;99.90
52415;DHT22;38340;52.964;6.086;2022-09-12T12:49:23;23.90;99.90
52415;DHT22;38340;52.964;6.086;2022-09-12T12:51:56;23.90;99.90
52415;DHT22;38340;52.964;6.086;2022-09-12T12:57:29;23.90;99.90
52415;DHT22;38340;52.964;6.086;2022-09-12T13:00:04;23.90;99.90
52415;DHT22;38340;52.964;6.086;2022-09-12T13:02:36;23.90;99.90
52415;DHT22;38340;52.964;6.086;2022-09-12T13:05:09;23.80;99.90
52415;DHT22;38340;52.964;6.086;2022-09-12T13:07:42;23.90;99.90
52415;DHT22;38340;52.964;6.086;2022-09-12T13:10:23;24.00;99.90
52415;DHT22;38340;52.964;6.086;2022-09-12T13:12:50;24.10;99.90
52415;DHT22;38340;52.964;6.086;2022-09-12T13:18:12;24.00;99.90
52415;DHT22;38340;52.964;6.086;2022-09-12T13:23:35;24.20;99.90
52415;DHT22;38340;52.964;6.086;2022-09-12T13:26:03;24.10;99.90
52415;DHT22;38340;52.964;6.086;2022-09-12T13:28:30;24.10;99.90
52415;DHT22;38340;52.964;6.086;2022-09-12T13:33:34;23.90;99.90
52415;DHT22;38340;52.964;6.086;2022-09-12T13:39:42;23.80;99.90
52415;DHT22;38340;52.964;6.086;2022-09-12T13:47:43;23.80;99.90
52415;DHT22;38340;52.964;6.086;2022-09-12T13:52:49;24.00;99.90
52415;DHT22;38340;52.964;6.086;2022-09-12T13:55:40;24.00;99.90
52415;DHT22;38340;52.964;6.086;2022-09-12T13:58:31;24.00;99.90
52415;DHT22;38340;52.964;6.086;2022-09-12T14:01:05;24.00;99.90
52415;DHT22;38340;52.964;6.086;2022-09-12T14:03:33;24.10;99.90
52415;DHT22;38340;52.964;6.086;2022-09-12T14:06:21;24.10;99.90
52415;DHT22;38340;52.964;6.086;2022-09-12T14:08:47;24.10;99.90
52415;DHT22;38340;52.964;6.086;2022-09-12T14:11:27;24.20;99.90
52415;DHT22;38340;52.964;6.086;2022-09-12T14:13:53;24.30;99.90
52415;DHT22;38340;52.964;6.086;2022-09-12T14:16:21;24.30;99.90
52415;DHT22;38340;52.964;6.086;2022-09-12T14:18:49;24.30;99.90
52415;DHT22;38340;52.964;6.086;2022-09-12T14:21:32;24.20;99.90
52415;DHT22;38340;52.964;6.086;2022-09-12T14:23:59;24.30;99.90
52415;DHT22;38340;52.964;6.086;2022-09-12T14:26:27;24.20;99.90
52415;DHT22;38340;52.964;6.086;2022-09-12T14:28:57;24.10;99.90
52415;DHT22;38340;52.964;6.086;2022-09-12T14:31:28;24.10;99.90
52415;DHT22;38340;52.964;6.086;2022-09-12T14:34:17;24.10;99.90
52415;DHT22;38340;52.964;6.086;2022-09-12T14:36:47;23.90;99.90
52415;DHT22;38340;52.964;6.086;2022-09-12T14:41:46;23.90;99.90
52415;DHT22;38340;52.964;6.086;2022-09-12T14:44:21;23.90;99.90
52415;DHT22;38340;52.964;6.086;2022-09-12T14:46:48;23.90;99.90
52415;DHT22;38340;52.964;6.086;2022-09-12T14:49:34;24.00;99.90
52415;DHT22;38340;52.964;6.086;2022-09-12T14:52:03;24.00;99.90
52415;DHT22;38340;52.964;6.086;2022-09-12T14:57:06;24.00;99.90
52415;DHT22;38340;52.964;6.086;2022-09-12T15:02:30;23.90;99.90
52415;DHT22;38340;52.964;6.086;2022-09-12T15:07:52;23.80;99.90
52415;DHT22;38340;52.964;6.086;2022-09-12T15:10:36;23.80;99.90
52415;DHT22;38340;52.964;6.086;2022-09-12T15:15:34;23.80;99.90
52415;DHT22;38340;52.964;6.086;2022-09-12T15:18:00;23.70;99.90
52415;DHT22;38340;52.964;6.086;2022-09-12T15:20:26;23.70;99.90
52415;DHT22;38340;52.964;6.086;2022-09-12T15:22:52;23.70;99.90
52415;DHT22;38340;52.964;6.086;2022-09-12T15:25:18;23.60;99.90
52415;DHT22;38340;52.964;6.086;2022-09-12T15:27:49;23.50;99.90
52415;DHT22;38340;52.964;6.086;2022-09-12T15:30:16;23.50;99.90
52415;DHT22;38340;52.964;6.086;2022-09-12T15:32:43;23.40;99.90
52415;DHT22;38340;52.964;6.086;2022-09-12T15:35:22;23.40;99.90
52415;DHT22;38340;52.964;6.086;2022-09-12T15:37:50;23.40;99.90
52415;DHT22;38340;52.964;6.086;2022-09-12T15:40:16;23.40;99.90
52415;DHT22;38340;52.964;6.086;2022-09-12T15:42:42;23.40;99.90
52415;DHT22;38340;52.964;6.086;2022-09-12T15:45:15;23.40;99.90
52415;DHT22;38340;52.964;6.086;2022-09-12T15:47:43;23.40;99.90
52415;DHT22;38340;52.964;6.086;2022-09-12T15:50:09;23.30;99.90
52415;DHT22;38340;52.964;6.086;2022-09-12T15:52:35;23.30;99.90
52415;DHT22;38340;52.964;6.086;2022-09-12T15:55:02;23.10;99.90
52415;DHT22;38340;52.964;6.086;2022-09-12T15:57:28;23.10;99.90
52415;DHT22;38340;52.964;6.086;2022-09-12T15:59:53;23.00;99.90
52415;DHT22;38340;52.964;6.086;2022-09-12T16:02:19;22.90;99.90
52415;DHT22;38340;52.964;6.086;2022-09-12T16:04:45;22.90;99.90
52415;DHT22;38340;52.964;6.086;2022-09-12T16:07:12;22.90;99.90
52415;DHT22;38340;52.964;6.086;2022-09-12T16:09:38;22.80;99.90
52415;DHT22;38340;52.964;6.086;2022-09-12T16:12:04;22.80;99.90
52415;DHT22;38340;52.964;6.086;2022-09-12T16:14:30;22.80;99.90
52415;DHT22;38340;52.964;6.086;2022-09-12T16:16:55;22.80;99.90
52415;DHT22;38340;52.964;6.086;2022-09-12T16:19:21;22.80;99.90
52415;DHT22;38340;52.964;6.086;2022-09-12T16:21:47;22.80;99.90
52415;DHT22;38340;52.964;6.086;2022-09-12T16:24:13;22.80;99.90
52415;DHT22;38340;52.964;6.086;2022-09-12T16:26:39;22.80;99.90
52415;DHT22;38340;52.964;6.086;2022-09-12T16:29:04;22.70;99.90
52415;DHT22;38340;52.964;6.086;2022-09-12T16:31:30;22.60;99.90
52415;DHT22;38340;52.964;6.086;2022-09-12T16:33:56;22.60;99.90
52415;DHT22;38340;52.964;6.086;2022-09-12T16:36:22;22.50;99.90
52415;DHT22;38340;52.964;6.086;2022-09-12T16:38:52;22.50;99.90
52415;DHT22;38340;52.964;6.086;2022-09-12T16:41:21;22.50;99.90
52415;DHT22;38340;52.964;6.086;2022-09-12T16:43:47;22.50;99.90
52415;DHT22;38340;52.964;6.086;2022-09-12T16:46:15;22.40;99.90
52415;DHT22;38340;52.964;6.086;2022-09-12T16:48:46;22.40;99.90
52415;DHT22;38340;52.964;6.086;2022-09-12T16:51:17;22.40;99.90
52415;DHT22;38340;52.964;6.086;2022-09-12T16:53:44;22.40;99.90
52415;DHT22;38340;52.964;6.086;2022-09-12T16:56:10;22.40;99.90
52415;DHT22;38340;52.964;6.086;2022-09-12T16:58:38;22.40;99.90
52415;DHT22;38340;52.964;6.086;2022-09-12T17:03:32;22.30;99.90
52415;DHT22;38340;52.964;6.086;2022-09-12T17:06:03;22.30;99.90
52415;DHT22;38340;52.964;6.086;2022-09-12T17:08:31;22.20;99.90
52415;DHT22;38340;52.964;6.086;2022-09-12T17:11:02;22.10;99.90
52415;DHT22;38340;52.964;6.086;2022-09-12T17:13:29;22.00;99.90
52415;DHT22;38340;52.964;6.086;2022-09-12T17:15:55;21.90;99.90
52415;DHT22;38340;52.964;6.086;2022-09-12T17:18:21;21.80;99.90
52415;DHT22;38340;52.964;6.086;2022-09-12T17:20:48;21.70;99.90
52415;DHT22;38340;52.964;6.086;2022-09-12T17:23:14;21.60;99.90
52415;DHT22;38340;52.964;6.086;2022-09-12T17:25:44;21.50;99.90
52415;DHT22;38340;52.964;6.086;2022-09-12T17:28:10;21.40;99.90
52415;DHT22;38340;52.964;6.086;2022-09-12T17:30:36;21.30;99.90
52415;DHT22;38340;52.964;6.086;2022-09-12T17:33:02;21.20;99.90
52415;DHT22;38340;52.964;6.086;2022-09-12T17:35:28;21.10;99.90
52415;DHT22;38340;52.964;6.086;2022-09-12T17:37:53;21.00;99.90
52415;DHT22;38340;52.964;6.086;2022-09-12T17:40:20;20.90;99.90
52415;DHT22;38340;52.964;6.086;2022-09-12T17:42:45;20.90;99.90
52415;DHT22;38340;52.964;6.086;2022-09-12T17:45:11;20.80;99.90
52415;DHT22;38340;52.964;6.086;2022-09-12T17:47:40;20.70;99.90
52415;DHT22;38340;52.964;6.086;2022-09-12T17:50:08;20.60;99.90
52415;DHT22;38340;52.964;6.086;2022-09-12T17:52:34;20.60;99.90
52415;DHT22;38340;52.964;6.086;2022-09-12T17:55:00;20.50;99.90
52415;DHT22;38340;52.964;6.086;2022-09-12T17:57:26;20.40;99.90
52415;DHT22;38340;52.964;6.086;2022-09-12T17:59:52;20.30;99.90
52415;DHT22;38340;52.964;6.086;2022-09-12T18:02:17;20.30;99.90
52415;DHT22;38340;52.964;6.086;2022-09-12T18:04:44;20.20;99.90
52415;DHT22;38340;52.964;6.086;2022-09-12T18:07:19;20.10;99.90
52415;DHT22;38340;52.964;6.086;2022-09-12T18:09:45;20.00;99.90
52415;DHT22;38340;52.964;6.086;2022-09-12T18:12:13;20.00;99.90
52415;DHT22;38340;52.964;6.086;2022-09-12T18:14:39;19.90;99.90
52415;DHT22;38340;52.964;6.086;2022-09-12T18:17:05;19.90;99.90
52415;DHT22;38340;52.964;6.086;2022-09-12T18:19:36;19.80;99.90
52415;DHT22;38340;52.964;6.086;2022-09-12T18:22:03;19.60;99.90
52415;DHT22;38340;52.964;6.086;2022-09-12T18:24:31;19.50;99.90
52415;DHT22;38340;52.964;6.086;2022-09-12T18:26:56;19.40;99.90
52415;DHT22;38340;52.964;6.086;2022-09-12T18:29:23;19.30;99.90
52415;DHT22;38340;52.964;6.086;2022-09-12T18:31:49;19.20;99.90
52415;DHT22;38340;52.964;6.086;2022-09-12T18:34:16;19.20;99.90